Albert Lea, MN

2:26 AM CST on February 26, 2017 (GMT -0600)
Albert Lea Municipal

Weather History for KAEL - February, 2012

Change the Weather History Date:

Tuesday, February 21, 2012

  Actual Average Record
Temperature  
Mean Temperature 32 °F -  
Max Temperature 35 °F 29 °F 60 °F (2017)
Min Temperature 30 °F 16 °F -9 °F (2001)
Degree Days  
Heating Degree Days 32    
Moisture  
Dew Point 29 °F    
Average Humidity 87    
Maximum Humidity 100    
Minimum Humidity 75    
Precipitation  
Precipitation 0.00 in - - ()
Sea Level Pressure  
Sea Level Pressure 29.60 in    
Wind  
Wind Speed 13 mph (WSW)    
Max Wind Speed 18 mph    
Max Gust Speed 26 mph    
Visibility 9 miles    
Events      
Averages and records for this station are not official NWS values.
T = Trace of Precipitation, MM = Missing Value Source: NWS Daily Summary

Daily Weather History Graph

Daily Weather History Graph

Search for Another Location

Airport or City:

Trip Planner

Search our weather history database for the weather conditions in past years. The results will help you decide how hot, cold, wet, or windy it might be!

Date:

Astronomy

Feb. 21, 2012 Rise Set
Actual Time 7:03 AM CST 5:51 PM CST
Civil Twilight 6:34 AM CST 6:20 PM CST
Nautical Twilight 6:01 AM CST 6:53 PM CST
Astronomical Twilight 5:28 AM CST 7:26 PM CST
Moon 6:31 AM CST (2/21) 6:00 PM CST (2/21)
Length of Visible Light 11h 45m
Length of Day
10h 47m
Waning Crescent, 0% of the Moon is Illuminated
Feb 21
Waning Crescent
Feb 21
New
Feb 29
First Quarter
Mar 8
Full
Mar 14
Last Quarter

Hourly Weather History & Observations

Time (CST) Temp. Windchill Dew Point Humidity Pressure Visibility Wind Dir Wind Speed Gust Speed Precip Events Conditions
12:08 AM 32.0 °F 20.8 °F 30.2 °F 93% 29.61 in - SSE 17.3 mph - N/A   Overcast
12:28 AM 32.0 °F 21.2 °F 30.2 °F 93% 29.61 in - SSE 16.1 mph 21.9 mph N/A   Unknown
12:49 AM 32.0 °F 22.1 °F 30.2 °F 93% 29.60 in - SSE 13.8 mph - N/A   Unknown
1:08 AM 32.0 °F 20.5 °F 30.2 °F 93% 29.59 in - SSE 18.4 mph 25.3 mph N/A   Overcast
1:29 AM 32.0 °F 21.6 °F 30.2 °F 93% 29.58 in - South 15.0 mph - N/A   Unknown
1:49 AM 32.0 °F 23.0 °F - N/A% 29.58 in - South 11.5 mph - N/A   Unknown
2:09 AM 32.0 °F 23.6 °F 30.2 °F 93% 29.57 in - South 10.4 mph 17.3 mph N/A   Overcast
2:28 AM 32.0 °F 23.6 °F 30.2 °F 93% 29.56 in - South 10.4 mph - N/A   Overcast
2:49 AM 32.0 °F 23.6 °F 30.2 °F 93% 29.55 in - South 10.4 mph 16.1 mph N/A   Overcast
3:28 AM 32.0 °F 24.8 °F 32.0 °F 100% 29.53 in 5.0 mi South 8.1 mph - N/A   Overcast
3:49 AM 32.0 °F 24.2 °F 32.0 °F 100% 29.52 in 4.0 mi South 9.2 mph 16.1 mph N/A   Overcast
4:08 AM 32.0 °F 24.8 °F 32.0 °F 100% 29.53 in 5.0 mi SSW 8.1 mph - N/A   Overcast
4:28 AM 32.0 °F 24.2 °F 32.0 °F 100% 29.53 in 4.0 mi SW 9.2 mph - N/A   Overcast
4:49 AM 32.0 °F 24.8 °F 32.0 °F 100% 29.54 in 2.5 mi WSW 8.1 mph - N/A   Overcast
5:09 AM 32.0 °F 23.6 °F 32.0 °F 100% 29.54 in 3.0 mi West 10.4 mph 16.1 mph N/A   Overcast
5:28 AM 32.0 °F 22.5 °F 32.0 °F 100% 29.55 in 7.0 mi West 12.7 mph 20.7 mph N/A   Overcast
6:08 AM 32.0 °F 24.2 °F 30.2 °F 93% 29.55 in 10.0 mi WNW 9.2 mph - N/A   Overcast
6:28 AM 32.0 °F 22.5 °F 30.2 °F 93% 29.55 in 10.0 mi WNW 12.7 mph 16.1 mph N/A   Overcast
6:49 AM 32.0 °F 23.6 °F 30.2 °F 93% 29.54 in 10.0 mi WNW 10.4 mph 16.1 mph N/A   Overcast
7:09 AM 32.0 °F 23.6 °F 30.2 °F 93% 29.55 in 10.0 mi WNW 10.4 mph 16.1 mph N/A   Overcast
7:28 AM 32.0 °F 24.8 °F 30.2 °F 93% 29.56 in 10.0 mi West 8.1 mph - N/A   Mostly Cloudy
7:49 AM 30.2 °F 22.6 °F 30.2 °F 100% 29.58 in 10.0 mi West 8.1 mph - N/A   Scattered Clouds
8:08 AM 30.2 °F 21.9 °F 30.2 °F 100% 29.59 in 10.0 mi West 9.2 mph - N/A   Mostly Cloudy
8:28 AM 32.0 °F 23.0 °F 30.2 °F 93% 29.59 in 10.0 mi West 11.5 mph 17.3 mph N/A   Overcast
8:49 AM 32.0 °F 21.6 °F 30.2 °F 93% 29.60 in 10.0 mi West 15.0 mph 20.7 mph N/A   Overcast
9:08 AM 32.0 °F 23.6 °F 30.2 °F 93% 29.61 in 10.0 mi West 10.4 mph 19.6 mph N/A   Overcast
9:28 AM 32.0 °F 23.0 °F 30.2 °F 93% 29.60 in 10.0 mi West 11.5 mph 17.3 mph N/A   Overcast
9:49 AM 33.8 °F 25.3 °F 30.2 °F 87% 29.60 in 10.0 mi West 11.5 mph 16.1 mph N/A   Mostly Cloudy
10:08 AM 33.8 °F 24.3 °F 30.2 °F 87% 29.60 in 10.0 mi West 13.8 mph 20.7 mph N/A   Overcast
10:28 AM 33.8 °F 23.9 °F 30.2 °F 87% 29.61 in 10.0 mi West 15.0 mph 20.7 mph N/A   Overcast
10:48 AM 33.8 °F 24.3 °F 30.2 °F 87% 29.61 in 10.0 mi West 13.8 mph 24.2 mph N/A   Overcast
11:08 AM 33.8 °F 24.3 °F 28.4 °F 81% 29.61 in 10.0 mi West 13.8 mph 19.6 mph N/A   Overcast
11:28 AM 33.8 °F 24.8 °F 28.4 °F 81% 29.62 in 10.0 mi West 12.7 mph 20.7 mph N/A   Overcast
11:49 AM 33.8 °F 27.0 °F 30.2 °F 87% 29.61 in 10.0 mi West 8.1 mph 17.3 mph N/A   Overcast
12:08 PM 33.8 °F 25.3 °F 28.4 °F 81% 29.61 in 10.0 mi West 11.5 mph 23.0 mph N/A   Overcast
12:28 PM 33.8 °F 23.9 °F 30.2 °F 87% 29.61 in 10.0 mi West 15.0 mph 23.0 mph N/A   Overcast
12:49 PM 35.6 °F 27.5 °F 30.2 °F 81% 29.60 in 10.0 mi West 11.5 mph 19.6 mph N/A   Overcast
1:09 PM 35.6 °F 25.9 °F 30.2 °F 81% 29.60 in 10.0 mi West 16.1 mph 23.0 mph N/A   Overcast
1:28 PM 33.8 °F 22.8 °F 28.4 °F 81% 29.60 in 10.0 mi West 18.4 mph 26.5 mph N/A   Overcast
1:49 PM 33.8 °F 24.3 °F 28.4 °F 81% 29.60 in 10.0 mi West 13.8 mph 26.5 mph N/A   Overcast
2:08 PM 33.8 °F 24.3 °F 28.4 °F 81% 29.61 in 10.0 mi West 13.8 mph 24.2 mph N/A   Overcast
2:29 PM 33.8 °F 24.3 °F 28.4 °F 81% 29.61 in 10.0 mi West 13.8 mph 23.0 mph N/A   Overcast
2:48 PM 33.8 °F 24.3 °F 28.4 °F 81% 29.61 in 10.0 mi West 13.8 mph 24.2 mph N/A   Overcast
3:08 PM 33.8 °F 23.9 °F 28.4 °F 81% 29.62 in 10.0 mi West 15.0 mph 23.0 mph N/A   Overcast
3:29 PM 32.0 °F 22.1 °F 26.6 °F 80% 29.62 in 10.0 mi West 13.8 mph 25.3 mph N/A   Overcast
4:08 PM 33.8 °F 23.9 °F 26.6 °F 75% 29.62 in 10.0 mi West 15.0 mph 23.0 mph N/A   Overcast
4:29 PM 32.0 °F 21.6 °F 24.8 °F 75% 29.62 in 10.0 mi West 15.0 mph 23.0 mph N/A   Overcast
4:48 PM 32.0 °F 22.1 °F 24.8 °F 75% 29.62 in 10.0 mi West 13.8 mph 20.7 mph N/A   Scattered Clouds
5:09 PM 32.0 °F 21.6 °F 24.8 °F 75% 29.63 in 10.0 mi West 15.0 mph 23.0 mph N/A   Scattered Clouds
5:29 PM 32.0 °F 22.1 °F 26.6 °F 80% 29.63 in 10.0 mi West 13.8 mph 20.7 mph N/A   Mostly Cloudy
5:48 PM 32.0 °F 23.0 °F 26.6 °F 80% 29.64 in 10.0 mi West 11.5 mph 19.6 mph N/A   Mostly Cloudy
6:09 PM 32.0 °F 22.5 °F 24.8 °F 75% 29.65 in 10.0 mi West 12.7 mph 18.4 mph N/A   Mostly Cloudy
6:48 PM 30.2 °F 20.8 °F 24.8 °F 80% 29.65 in 10.0 mi West 11.5 mph 17.3 mph N/A   Mostly Cloudy
7:08 PM 30.2 °F 21.9 °F 24.8 °F 80% 29.64 in 10.0 mi West 9.2 mph 19.6 mph N/A   Mostly Cloudy
7:28 PM 30.2 °F 21.3 °F 24.8 °F 80% 29.64 in 10.0 mi WSW 10.4 mph 16.1 mph N/A   Mostly Cloudy
7:49 PM 30.2 °F 22.6 °F 24.8 °F 80% 29.64 in 10.0 mi WSW 8.1 mph - N/A   Scattered Clouds
8:08 PM 30.2 °F 21.9 °F 24.8 °F 80% 29.63 in 10.0 mi WSW 9.2 mph - N/A   Clear
8:28 PM 30.2 °F 22.6 °F 24.8 °F 80% 29.63 in 10.0 mi WSW 8.1 mph - N/A   Scattered Clouds
8:49 PM 30.2 °F 21.9 °F 24.8 °F 80% 29.63 in 10.0 mi WSW 9.2 mph - N/A   Scattered Clouds
9:09 PM 30.2 °F 21.3 °F 26.6 °F 86% 29.63 in 10.0 mi WSW 10.4 mph - N/A   Clear
9:28 PM 30.2 °F 22.6 °F 24.8 °F 80% 29.63 in 10.0 mi WSW 8.1 mph - N/A   Clear
9:49 PM 30.2 °F 22.6 °F 26.6 °F 86% 29.62 in 10.0 mi WSW 8.1 mph - N/A   Scattered Clouds
10:09 PM 30.2 °F 22.6 °F 24.8 °F 80% 29.62 in 10.0 mi WSW 8.1 mph - N/A   Mostly Cloudy
10:28 PM 30.2 °F 22.6 °F 26.6 °F 86% 29.61 in 10.0 mi WSW 8.1 mph - N/A   Overcast
10:49 PM 30.2 °F 22.6 °F 26.6 °F 86% 29.60 in 10.0 mi WSW 8.1 mph - N/A   Mostly Cloudy
11:08 PM 30.2 °F 23.4 °F 24.8 °F 80% 29.59 in 10.0 mi WSW 6.9 mph - N/A   Mostly Cloudy
11:28 PM 30.2 °F 22.6 °F 24.8 °F 80% 29.59 in 10.0 mi WSW 8.1 mph - N/A   Overcast
11:49 PM 30.2 °F 21.9 °F 24.8 °F 80% 29.58 in 10.0 mi WSW 9.2 mph - N/A   Overcast